createdAt,value
2019-05-12T00:00:58.807Z,45.15
2019-05-12T00:03:05.365Z,51.73
2019-05-12T00:05:13.097Z,46.30
2019-05-12T00:07:19.558Z,46.83
2019-05-12T00:09:28.291Z,46.10
2019-05-12T00:11:34.125Z,43.90
2019-05-12T00:13:40.579Z,44.15
2019-05-12T00:15:47.636Z,42.45
2019-05-12T00:17:54.293Z,49.73
2019-05-12T00:20:00.732Z,40.50
2019-05-12T00:22:07.726Z,42.95
2019-05-12T00:24:14.266Z,43.48
2019-05-12T00:26:20.771Z,40.83
2019-05-12T00:28:28.355Z,39.67
2019-05-12T00:30:38.836Z,38.70
2019-05-12T00:32:44.961Z,38.70
2019-05-12T00:34:51.438Z,40.90
2019-05-12T00:36:58.247Z,47.35
2019-05-12T00:39:08.665Z,46.65
2019-05-12T00:41:15.164Z,44.38
2019-05-12T00:43:21.616Z,43.13
2019-05-12T00:45:29.233Z,53.55
2019-05-12T00:47:36.010Z,45.45
2019-05-12T00:49:42.434Z,42.62
2019-05-12T00:51:48.911Z,38.05
2019-05-12T00:53:55.322Z,41.18
2019-05-12T00:56:01.798Z,42.80
2019-05-12T00:58:09.099Z,43.02
2019-05-12T01:00:17.854Z,41.65
2019-05-12T01:02:24.527Z,43.25
2019-05-12T01:04:30.951Z,43.25
2019-05-12T01:06:38.682Z,42.00
2019-05-12T01:08:45.686Z,41.73
2019-05-12T01:10:52.189Z,41.90
2019-05-12T01:12:58.739Z,42.98
2019-05-12T01:15:07.672Z,44.63
2019-05-12T01:17:14.066Z,46.10
2019-05-12T01:19:20.512Z,44.48
2019-05-12T01:21:28.690Z,48.48
2019-05-12T01:23:35.236Z,43.52
2019-05-12T01:25:41.730Z,39.88
2019-05-12T01:27:48.370Z,44.55
2019-05-12T01:29:54.946Z,43.85
2019-05-12T01:32:18.373Z,41.75
2019-05-12T01:34:24.917Z,35.17
2019-05-12T01:36:31.352Z,36.48
2019-05-12T01:38:38.064Z,39.38
2019-05-12T01:40:44.629Z,32.63
2019-05-12T01:42:51.116Z,32.28
2019-05-12T01:44:58.448Z,31.25
2019-05-12T01:47:05.029Z,33.70
2019-05-12T01:49:11.489Z,34.18
2019-05-12T01:51:18.061Z,33.63
2019-05-12T01:53:24.534Z,33.18
2019-05-12T01:55:31.022Z,32.00
2019-05-12T01:57:38.475Z,35.98
2019-05-12T01:59:45.427Z,29.90
2019-05-12T02:01:51.835Z,33.30
2019-05-12T02:03:58.630Z,32.55
2019-05-12T02:06:08.247Z,35.80
2019-05-12T02:08:18.575Z,34.05
2019-05-12T02:10:25.662Z,33.30
2019-05-12T02:12:32.111Z,33.55
2019-05-12T02:14:38.508Z,36.20
2019-05-12T02:16:47.748Z,33.90
2019-05-12T02:18:54.089Z,35.13
2019-05-12T02:21:00.504Z,32.50
2019-05-12T02:23:08.840Z,34.38
2019-05-12T02:25:18.512Z,32.03
2019-05-12T02:27:24.660Z,32.13
2019-05-12T02:29:31.226Z,30.52
2019-05-12T02:31:39.645Z,33.40
2019-05-12T02:33:45.860Z,33.87
2019-05-12T02:35:54.835Z,33.73
2019-05-12T02:38:00.365Z,32.42
2019-05-12T02:40:09.998Z,29.35
2019-05-12T02:42:17.569Z,35.00
2019-05-12T02:44:24.897Z,30.88
2019-05-12T02:46:34.555Z,36.93
2019-05-12T02:48:39.932Z,34.07
2019-05-12T02:50:47.038Z,34.08
2019-05-12T02:52:54.599Z,32.63
2019-05-12T02:55:05.625Z,32.48
2019-05-12T02:57:14.480Z,33.42
2019-05-12T02:59:25.309Z,31.93
2019-05-12T03:01:35.231Z,33.42
2019-05-12T03:03:45.520Z,36.25
2019-05-12T03:05:55.927Z,34.25
2019-05-12T03:08:05.297Z,30.88
2019-05-12T03:10:14.603Z,34.85
2019-05-12T03:12:20.292Z,33.98
2019-05-12T03:14:26.771Z,33.95
2019-05-12T03:16:34.876Z,32.90
2019-05-12T03:18:44.677Z,30.20
2019-05-12T03:20:49.670Z,32.67
2019-05-12T03:22:56.170Z,30.92
2019-05-12T03:25:14.739Z,35.98
2019-05-12T03:27:10.858Z,34.08
2019-05-12T03:29:17.250Z,32.70
2019-05-12T03:31:30.975Z,31.52
2019-05-12T03:33:41.503Z,30.07
2019-05-12T03:35:50.166Z,34.30
2019-05-12T03:37:49.403Z,29.02
2019-05-12T03:39:55.855Z,28.47
2019-05-12T03:42:04.841Z,33.92
2019-05-12T03:44:10.484Z,34.75
2019-05-12T03:46:16.894Z,30.23
2019-05-12T03:48:25.297Z,27.98
2019-05-12T03:50:34.899Z,26.87
2019-05-12T03:52:39.769Z,29.17
2019-05-12T03:54:46.185Z,27.50
2019-05-12T03:56:55.705Z,31.30
2019-05-12T03:59:00.881Z,26.63
2019-05-12T04:01:07.457Z,27.90
2019-05-12T04:03:15.279Z,26.50
2019-05-12T04:05:24.408Z,28.83
2019-05-12T04:07:30.473Z,25.40
2019-05-12T04:09:36.879Z,26.02
2019-05-12T04:11:44.419Z,26.73
2019-05-12T04:13:51.176Z,26.20
2019-05-12T04:15:57.600Z,25.80
2019-05-12T04:18:05.664Z,23.75
2019-05-12T04:20:15.175Z,24.27
2019-05-12T04:22:20.620Z,25.08
2019-05-12T04:24:27.061Z,21.87
2019-05-12T04:26:36.516Z,24.12
2019-05-12T04:28:41.674Z,22.83
2019-05-12T04:30:48.126Z,21.12
2019-05-12T04:32:55.395Z,24.20
2019-05-12T04:35:04.677Z,21.30
2019-05-12T04:37:10.071Z,22.20
2019-05-12T04:39:16.483Z,20.05
2019-05-12T04:41:26.019Z,25.62
2019-05-12T04:43:31.223Z,18.52
2019-05-12T04:45:37.696Z,18.57
2019-05-12T04:47:45.103Z,20.43
2019-05-12T04:49:54.649Z,18.17
2019-05-12T04:51:59.825Z,19.43
2019-05-12T04:54:06.630Z,19.27
2019-05-12T04:56:19.176Z,18.95
2019-05-12T04:58:21.532Z,17.57
2019-05-12T05:00:28.180Z,19.12
2019-05-12T05:02:36.317Z,13.98
2019-05-12T05:04:44.097Z,18.92
2019-05-12T05:06:50.864Z,18.92
2019-05-12T05:08:57.271Z,15.65
2019-05-12T05:11:04.131Z,17.20
2019-05-12T05:13:10.765Z,16.73
2019-05-12T05:15:17.541Z,16.07
2019-05-12T05:17:24.538Z,17.77
2019-05-12T05:19:31.109Z,15.70
2019-05-12T05:21:37.523Z,20.50
2019-05-12T05:23:44.384Z,16.40
2019-05-12T05:25:50.925Z,15.15
2019-05-12T05:27:57.399Z,17.27
2019-05-12T05:30:04.923Z,14.83
2019-05-12T05:32:11.420Z,15.13
2019-05-12T05:34:17.816Z,14.53
2019-05-12T05:36:25.014Z,16.90
2019-05-12T05:38:34.160Z,12.80
2019-05-12T05:40:39.899Z,12.65
2019-05-12T05:42:46.291Z,15.18
2019-05-12T05:44:54.365Z,15.20
2019-05-12T05:47:00.868Z,13.33
2019-05-12T05:49:07.345Z,13.80
2019-05-12T05:51:13.859Z,14.63
2019-05-12T05:53:20.214Z,14.58
2019-05-12T05:55:26.787Z,14.03
2019-05-12T05:57:33.647Z,10.63
2019-05-12T05:59:40.405Z,13.40
2019-05-12T06:01:51.690Z,12.23
2019-05-12T06:03:58.315Z,14.65
2019-05-12T06:06:10.784Z,12.03
2019-05-12T06:08:16.223Z,13.43
2019-05-12T06:10:19.713Z,13.78
2019-05-12T06:12:26.310Z,16.05
2019-05-12T06:14:34.203Z,15.60
2019-05-12T06:16:43.204Z,13.27
2019-05-12T06:18:49.183Z,12.78
2019-05-12T06:20:55.719Z,15.13
2019-05-12T06:23:03.807Z,13.93
2019-05-12T06:25:10.548Z,12.73
2019-05-12T06:27:21.029Z,11.73
2019-05-12T06:29:25.276Z,13.07
2019-05-12T06:31:33.520Z,13.25
2019-05-12T06:33:40.057Z,12.15
2019-05-12T06:35:46.526Z,12.63
2019-05-12T06:38:00.207Z,11.97
2019-05-12T06:40:03.406Z,13.20
2019-05-12T06:42:14.260Z,16.52
2019-05-12T06:44:19.516Z,15.60
2019-05-12T06:46:27.359Z,14.78
2019-05-12T06:48:33.903Z,13.98
2019-05-12T06:50:40.327Z,12.68
2019-05-12T06:52:49.052Z,13.60
2019-05-12T06:54:56.768Z,12.80
2019-05-12T06:57:18.667Z,13.18
2019-05-12T06:59:14.453Z,12.37
2019-05-12T07:01:20.647Z,11.78
2019-05-12T07:03:30.763Z,11.08
2019-05-12T07:05:38.539Z,12.78
2019-05-12T07:07:46.192Z,12.65
2019-05-12T07:10:07.952Z,10.03
2019-05-12T07:12:07.301Z,11.80
2019-05-12T07:14:22.553Z,11.53
2019-05-12T07:16:29.796Z,10.70
2019-05-12T07:18:32.866Z,13.75
2019-05-12T07:20:39.147Z,11.78
2019-05-12T07:22:48.469Z,11.43
2019-05-12T07:24:54.755Z,11.15
2019-05-12T07:27:04.228Z,9.25
2019-05-12T07:29:09.515Z,10.30
2019-05-12T07:31:16.148Z,9.03
2019-05-12T07:33:23.307Z,8.83
2019-05-12T07:35:30.670Z,10.60
2019-05-12T07:37:39.917Z,9.03
2019-05-12T07:39:49.385Z,7.92
2019-05-12T07:41:57.462Z,8.30
2019-05-12T07:44:04.246Z,8.93
2019-05-12T07:46:13.432Z,7.83
2019-05-12T07:48:20.165Z,7.65
2019-05-12T07:50:27.454Z,8.90
2019-05-12T07:52:34.001Z,10.70
2019-05-12T07:54:41.605Z,9.18
2019-05-12T07:56:48.065Z,8.18
2019-05-12T07:58:57.082Z,9.28
2019-05-12T08:01:07.734Z,8.70
2019-05-12T08:03:20.911Z,9.68
2019-05-12T08:05:23.892Z,7.00
2019-05-12T08:07:30.198Z,11.38
2019-05-12T08:09:36.822Z,9.38
2019-05-12T08:11:44.035Z,8.63
2019-05-12T08:13:50.471Z,9.78
2019-05-12T08:15:56.946Z,7.58
2019-05-12T08:18:07.436Z,8.95
2019-05-12T08:20:13.452Z,7.47
2019-05-12T08:22:25.110Z,12.82
2019-05-12T08:24:28.446Z,8.53
2019-05-12T08:26:34.886Z,6.70
2019-05-12T08:28:41.286Z,8.58
2019-05-12T08:30:52.151Z,8.25
2019-05-12T08:33:02.642Z,7.30
2019-05-12T08:35:05.194Z,7.53
2019-05-12T08:37:13.941Z,6.53
2019-05-12T08:39:23.144Z,7.72
2019-05-12T08:41:28.791Z,6.47
2019-05-12T08:43:44.132Z,7.37
2019-05-12T08:45:44.327Z,8.70
2019-05-12T08:47:51.049Z,6.95
2019-05-12T08:49:58.758Z,8.03
2019-05-12T08:52:08.353Z,7.90
2019-05-12T08:54:14.818Z,7.70
2019-05-12T08:56:25.526Z,5.53
2019-05-12T08:58:34.022Z,4.78
2019-05-12T09:00:46.562Z,5.35
2019-05-12T09:02:50.646Z,6.87
2019-05-12T09:04:57.209Z,6.87
2019-05-12T09:07:07.140Z,6.25
2019-05-12T09:09:14.026Z,5.05
2019-05-12T09:11:24.290Z,4.75
2019-05-12T09:13:30.655Z,4.95
2019-05-12T09:15:37.332Z,4.75
2019-05-12T09:17:54.619Z,5.58
2019-05-12T09:20:06.856Z,8.13
2019-05-12T09:22:18.486Z,5.87
2019-05-12T09:24:26.753Z,7.42
2019-05-12T09:26:34.175Z,5.75
2019-05-12T09:28:47.492Z,6.40
2019-05-12T09:30:49.530Z,5.28
2019-05-12T09:32:56.210Z,6.70
2019-05-12T09:35:03.964Z,5.65
2019-05-12T09:37:10.753Z,4.60
2019-05-12T09:39:17.633Z,4.85
2019-05-12T09:41:24.280Z,4.65
2019-05-12T09:43:30.729Z,3.50
2019-05-12T09:45:40.242Z,9.05
2019-05-12T09:47:45.811Z,4.50
2019-05-12T09:49:53.561Z,3.83
2019-05-12T09:52:00.071Z,6.90
2019-05-12T09:54:06.569Z,6.90
2019-05-12T09:56:13.729Z,6.00
2019-05-12T09:58:27.301Z,3.95
2019-05-12T10:00:35.902Z,3.65
2019-05-12T10:02:40.602Z,4.95
2019-05-12T10:04:50.214Z,4.28
2019-05-12T10:06:55.366Z,7.72
2019-05-12T10:09:03.427Z,4.37
2019-05-12T10:11:16.677Z,5.50
2019-05-12T10:13:30.207Z,4.40
2019-05-12T10:15:36.578Z,4.42
2019-05-12T10:17:43.485Z,4.65
2019-05-12T10:19:54.188Z,3.30
2019-05-12T10:21:59.658Z,2.80
2019-05-12T10:24:06.400Z,3.47
2019-05-12T10:26:14.667Z,3.50
2019-05-12T10:28:21.062Z,3.12
2019-05-12T10:30:27.742Z,3.45
2019-05-12T10:32:34.300Z,7.40
2019-05-12T10:34:44.211Z,3.85
2019-05-12T10:36:53.857Z,4.20
2019-05-12T10:38:59.820Z,3.33
2019-05-12T10:41:06.383Z,3.20
2019-05-12T10:43:12.854Z,3.35
2019-05-12T10:45:23.302Z,3.33
2019-05-12T10:47:31.114Z,6.12
2019-05-12T10:49:37.581Z,10.08
2019-05-12T10:51:47.529Z,4.85
2019-05-12T10:53:59.852Z,4.30
2019-05-12T10:56:00.798Z,5.80
2019-05-12T10:58:09.696Z,5.33
2019-05-12T11:00:19.630Z,3.17
2019-05-12T11:02:29.226Z,3.95
2019-05-12T11:04:38.919Z,5.97
2019-05-12T11:06:44.745Z,3.15
2019-05-12T11:08:51.318Z,4.15
2019-05-12T11:11:01.111Z,5.75
2019-05-12T11:13:08.306Z,11.15
2019-05-12T11:15:14.659Z,4.67
2019-05-12T11:17:21.141Z,3.87
2019-05-12T11:19:30.798Z,4.12
2019-05-12T11:21:47.280Z,3.60
2019-05-12T11:23:54.316Z,4.05
2019-05-12T11:26:03.712Z,3.60
2019-05-12T11:28:09.846Z,6.08
2019-05-12T11:30:16.844Z,4.40
2019-05-12T11:32:23.321Z,4.58
2019-05-12T11:34:29.736Z,4.08
2019-05-12T11:36:36.275Z,4.00
2019-05-12T11:38:44.433Z,4.03
2019-05-12T11:40:51.131Z,3.95
2019-05-12T11:43:00.938Z,4.03
2019-05-12T11:45:08.445Z,5.80
2019-05-12T11:47:23.916Z,3.25
2019-05-12T11:49:26.334Z,4.10
2019-05-12T11:51:31.275Z,3.92
2019-05-12T11:53:44.364Z,3.35
2019-05-12T11:55:49.773Z,4.20
2019-05-12T11:58:00.446Z,3.45
2019-05-12T12:00:08.156Z,3.17
2019-05-12T12:02:20.109Z,3.20
2019-05-12T12:04:29.789Z,6.22
2019-05-12T12:06:36.740Z,5.20
2019-05-12T12:08:44.167Z,3.98
2019-05-12T12:10:50.868Z,4.05
2019-05-12T12:12:57.312Z,5.00
2019-05-12T12:15:04.759Z,3.72
2019-05-12T12:17:13.614Z,6.03
2019-05-12T12:19:20.146Z,2.83
2019-05-12T12:21:26.613Z,3.22
2019-05-12T12:23:33.512Z,3.55
2019-05-12T12:25:43.022Z,5.20
2019-05-12T12:27:48.671Z,4.35
2019-05-12T12:29:55.140Z,3.70
2019-05-12T12:32:01.646Z,4.25
2019-05-12T12:34:08.052Z,4.15
2019-05-12T12:36:14.613Z,4.00
2019-05-12T12:38:22.185Z,5.12
2019-05-12T12:40:28.893Z,5.87
2019-05-12T12:42:39.707Z,4.80
2019-05-12T12:44:43.698Z,6.45
2019-05-12T12:46:51.129Z,4.40
2019-05-12T12:49:00.453Z,4.55
2019-05-12T12:51:06.421Z,4.33
2019-05-12T12:53:12.815Z,5.97
2019-05-12T12:55:19.401Z,6.37
2019-05-12T12:57:26.889Z,4.03
2019-05-12T12:59:33.478Z,3.98
2019-05-12T13:01:39.992Z,6.22
2019-05-12T13:03:46.393Z,4.05
2019-05-12T13:05:54.297Z,3.77
2019-05-12T13:08:04.091Z,3.08
2019-05-12T13:10:10.506Z,3.75
2019-05-12T13:12:19.528Z,3.87
2019-05-12T13:14:28.608Z,4.42
2019-05-12T13:16:34.334Z,6.20
2019-05-12T13:18:40.913Z,4.15
2019-05-12T13:20:47.387Z,4.37
2019-05-12T13:22:53.962Z,4.47
2019-05-12T13:25:04.460Z,3.80
2019-05-12T13:27:08.608Z,3.60
2019-05-12T13:29:14.979Z,4.58
2019-05-12T13:31:21.370Z,3.50
2019-05-12T13:33:27.874Z,4.55
2019-05-12T13:35:36.081Z,4.62
2019-05-12T13:37:43.314Z,3.67
2019-05-12T13:39:58.522Z,4.05
2019-05-12T13:42:00.238Z,3.70
2019-05-12T13:44:07.232Z,3.40
2019-05-12T13:46:13.739Z,3.83
2019-05-12T13:48:20.236Z,4.15
2019-05-12T13:50:26.748Z,3.98
2019-05-12T13:52:33.365Z,4.28
2019-05-12T13:54:39.727Z,4.42
2019-05-12T13:56:46.336Z,4.00
2019-05-12T13:58:54.063Z,4.17
2019-05-12T14:01:13.498Z,3.42
2019-05-12T14:03:09.818Z,3.30
2019-05-12T14:05:16.543Z,3.52
2019-05-12T14:07:23.667Z,3.87
2019-05-12T14:09:30.412Z,5.22
2019-05-12T14:11:36.798Z,4.47
2019-05-12T14:13:44.268Z,5.50
2019-05-12T14:15:50.729Z,5.78
2019-05-12T14:17:57.148Z,5.35
2019-05-12T14:20:09.144Z,4.15
2019-05-12T14:22:21.020Z,5.50
2019-05-12T14:24:23.190Z,6.47
2019-05-12T14:26:29.235Z,4.95
2019-05-12T14:28:39.489Z,3.37
2019-05-12T14:30:49.666Z,7.03
2019-05-12T14:35:00.857Z,3.90
2019-05-12T14:37:10.453Z,3.30
2019-05-12T14:39:15.745Z,5.12
2019-05-12T14:41:26.323Z,4.03
2019-05-12T14:43:30.442Z,5.37
2019-05-12T14:45:36.922Z,3.12
2019-05-12T14:47:43.864Z,4.78
2019-05-12T14:49:50.368Z,4.03
2019-05-12T14:51:56.759Z,5.15
2019-05-12T14:54:04.053Z,9.55
2019-05-12T14:56:10.616Z,4.40
2019-05-12T14:58:20.596Z,4.92
2019-05-12T15:00:25.111Z,3.85
2019-05-12T15:02:33.247Z,4.08
2019-05-12T15:04:39.819Z,7.20
2019-05-12T15:06:46.215Z,5.30
2019-05-12T15:08:54.084Z,6.83
2019-05-12T15:11:01.189Z,13.78
2019-05-12T15:13:08.556Z,9.50
2019-05-12T15:15:20.247Z,5.80
2019-05-12T15:17:24.562Z,9.78
2019-05-12T15:19:33.431Z,4.90
2019-05-12T15:21:39.517Z,4.37
2019-05-12T15:23:46.056Z,3.60
2019-05-12T15:25:53.833Z,8.40
2019-05-12T15:28:00.491Z,6.65
2019-05-12T15:30:22.147Z,4.90
2019-05-12T15:32:17.819Z,5.12
2019-05-12T15:34:24.276Z,4.50
2019-05-12T15:36:30.732Z,5.37
2019-05-12T15:38:37.254Z,4.12
2019-05-12T15:40:43.882Z,4.35
2019-05-12T15:42:55.001Z,3.90
2019-05-12T15:44:58.639Z,3.65
2019-05-12T15:47:05.175Z,9.30
2019-05-12T15:49:11.576Z,6.30
2019-05-12T15:51:18.150Z,10.85
2019-05-12T15:53:26.870Z,5.58
2019-05-12T15:55:34.493Z,4.87
2019-05-12T15:57:41.067Z,6.60
2019-05-12T15:59:47.493Z,8.45
2019-05-12T16:02:08.686Z,5.17
2019-05-12T16:04:03.696Z,5.35
2019-05-12T16:06:14.112Z,3.90
2019-05-12T16:08:18.661Z,5.20
2019-05-12T16:10:25.251Z,8.50
2019-05-12T16:12:34.203Z,5.33
2019-05-12T16:14:41.316Z,7.78
2019-05-12T16:16:47.884Z,6.60
2019-05-12T16:18:54.433Z,6.65
2019-05-12T16:21:07.217Z,10.65
2019-05-12T16:23:17.118Z,6.22
2019-05-12T16:25:20.661Z,5.55
2019-05-12T16:27:33.116Z,6.33
2019-05-12T16:29:38.985Z,9.40
2019-05-12T16:31:48.243Z,9.95
2019-05-12T16:33:52.878Z,5.97
2019-05-12T16:36:00.021Z,6.08
2019-05-12T16:38:17.303Z,8.00
2019-05-12T16:40:16.358Z,6.50
2019-05-12T16:42:23.614Z,6.75
2019-05-12T16:44:30.177Z,10.45
2019-05-12T16:46:36.725Z,7.08
2019-05-12T16:48:48.302Z,7.85
2019-05-12T16:50:52.551Z,7.08
2019-05-12T16:52:59.090Z,7.10
2019-05-12T16:55:07.801Z,6.90
2019-05-12T16:57:17.940Z,7.55
2019-05-12T16:59:24.611Z,9.18
2019-05-12T17:01:30.622Z,7.05
2019-05-12T17:03:37.064Z,5.42
2019-05-12T17:05:43.871Z,7.12
2019-05-12T17:07:55.863Z,8.63
2019-05-12T17:10:03.032Z,5.70
2019-05-12T17:12:07.948Z,6.67
2019-05-12T17:14:14.367Z,8.40
2019-05-12T17:16:20.824Z,7.15
2019-05-12T17:18:27.318Z,7.70
2019-05-12T17:20:33.785Z,7.72
2019-05-12T17:22:45.544Z,9.50
2019-05-12T17:24:48.520Z,7.92
2019-05-12T17:26:54.908Z,7.58
2019-05-12T17:29:01.805Z,9.93
2019-05-12T17:31:08.387Z,10.32
2019-05-12T17:33:22.394Z,9.13
2019-05-12T17:35:29.395Z,10.03
2019-05-12T17:37:36.587Z,11.75
2019-05-12T17:39:39.421Z,8.28
2019-05-12T17:41:46.097Z,7.08
2019-05-12T17:44:00.913Z,12.98
2019-05-12T17:46:03.668Z,9.03
2019-05-12T17:48:09.929Z,7.95
2019-05-12T17:50:16.642Z,8.95
2019-05-12T17:52:23.506Z,8.35
2019-05-12T17:54:29.936Z,10.95
2019-05-12T17:56:38.532Z,7.92
2019-05-12T17:58:47.457Z,8.60
2019-05-12T18:00:52.664Z,9.00
2019-05-12T18:03:14.580Z,13.93
2019-05-12T18:05:12.232Z,8.40
2019-05-12T18:07:19.243Z,10.55
2019-05-12T18:09:25.997Z,7.62
2019-05-12T18:11:33.977Z,11.68
2019-05-12T18:13:40.687Z,14.87
2019-05-12T18:15:47.296Z,11.73
2019-05-12T18:17:53.818Z,8.45
2019-05-12T18:20:01.107Z,14.05
2019-05-12T18:22:09.386Z,9.40
2019-05-12T18:24:16.039Z,13.60
2019-05-12T18:26:24.616Z,11.25
2019-05-12T18:28:33.681Z,8.80
2019-05-12T18:30:42.159Z,11.73
2019-05-12T18:32:54.986Z,12.20
2019-05-12T18:35:01.223Z,12.03
2019-05-12T18:37:08.849Z,10.88
2019-05-12T18:39:15.496Z,12.58
2019-05-12T18:41:24.363Z,10.05
2019-05-12T18:43:30.539Z,9.05
2019-05-12T18:45:37.138Z,13.72
2019-05-12T18:47:44.159Z,13.85
2019-05-12T18:49:53.699Z,9.85
2019-05-12T18:51:59.900Z,8.63
2019-05-12T18:54:10.605Z,9.25
2019-05-12T18:56:21.403Z,8.45
2019-05-12T18:58:30.764Z,7.70
2019-05-12T19:00:33.903Z,8.88
2019-05-12T19:02:40.619Z,9.50
2019-05-12T19:04:48.433Z,7.17
2019-05-12T19:06:54.984Z,10.25
2019-05-12T19:09:01.534Z,9.43
2019-05-12T19:11:19.877Z,13.98
2019-05-12T19:13:17.706Z,6.05
2019-05-12T19:15:24.304Z,10.30
2019-05-12T19:17:31.086Z,8.30
2019-05-12T19:19:37.693Z,10.95
2019-05-12T19:21:46.803Z,10.98
2019-05-12T19:23:54.303Z,9.73
2019-05-12T19:26:04.123Z,8.28
2019-05-12T19:28:10.700Z,9.47
2019-05-12T19:30:19.501Z,11.28
2019-05-12T19:32:28.078Z,7.80
2019-05-12T19:34:37.283Z,10.20
2019-05-12T19:36:44.851Z,13.50
2019-05-12T19:38:50.593Z,11.78
2019-05-12T19:41:00.653Z,7.25
2019-05-12T19:43:08.195Z,8.87
2019-05-12T19:45:19.852Z,8.13
2019-05-12T19:47:33.029Z,7.60
2019-05-12T19:49:45.962Z,7.77
2019-05-12T19:51:38.866Z,9.13
2019-05-12T19:53:46.909Z,10.93
2019-05-12T19:55:53.378Z,9.65
2019-05-12T19:58:05.446Z,8.23
2019-05-12T20:00:09.143Z,11.75
2019-05-12T20:02:15.587Z,9.23
2019-05-12T20:04:30.839Z,8.73
2019-05-12T20:06:33.446Z,11.97
2019-05-12T20:08:38.969Z,9.95
2019-05-12T20:10:49.345Z,11.38
2019-05-12T20:12:54.935Z,7.58
2019-05-12T20:15:04.008Z,12.25
2019-05-12T20:17:10.539Z,7.90
2019-05-12T20:19:19.954Z,8.68
2019-05-12T20:21:26.091Z,11.47
2019-05-12T20:23:34.694Z,7.12
2019-05-12T20:25:41.117Z,10.23
2019-05-12T20:27:47.686Z,9.60
2019-05-12T20:29:54.161Z,11.33
2019-05-12T20:32:00.698Z,11.48
2019-05-12T20:34:11.013Z,11.83
2019-05-12T20:36:15.293Z,7.13
2019-05-12T20:38:25.441Z,13.38
2019-05-12T20:40:32.221Z,8.35
2019-05-12T20:42:44.039Z,9.07
2019-05-12T20:44:46.434Z,8.15
2019-05-12T20:46:55.989Z,11.88
2019-05-12T20:49:06.026Z,7.77
2019-05-12T20:51:15.428Z,7.50
2019-05-12T20:53:24.865Z,10.50
2019-05-12T20:55:30.137Z,6.45
2019-05-12T20:57:40.173Z,7.27
2019-05-12T20:59:44.604Z,11.40
2019-05-12T21:01:51.141Z,6.72
2019-05-12T21:03:57.586Z,7.53
2019-05-12T21:06:04.501Z,5.75
2019-05-12T21:08:12.182Z,10.58
2019-05-12T21:10:26.431Z,5.73
2019-05-12T21:12:29.448Z,7.22
2019-05-12T21:14:35.970Z,5.10
2019-05-12T21:16:44.932Z,4.85
2019-05-12T21:19:02.212Z,5.00
2019-05-12T21:20:59.888Z,9.35
2019-05-12T21:23:06.459Z,6.95
2019-05-12T21:25:13.593Z,7.28
2019-05-12T21:27:20.088Z,6.92
2019-05-12T21:29:29.808Z,5.12
2019-05-12T21:31:34.646Z,5.77
2019-05-12T21:33:41.799Z,9.03
2019-05-12T21:35:48.474Z,3.90
2019-05-12T21:37:54.987Z,8.88
2019-05-12T21:40:03.670Z,4.33
2019-05-12T21:42:09.721Z,6.57
2019-05-12T21:44:16.161Z,3.77
2019-05-12T21:46:24.402Z,6.97
2019-05-12T21:48:30.958Z,6.03
2019-05-12T21:50:38.275Z,5.67
2019-05-12T21:52:45.035Z,6.45
2019-05-12T21:54:51.401Z,7.40
2019-05-12T21:56:57.982Z,5.90
2019-05-12T21:59:04.591Z,7.75
2019-05-12T22:01:13.585Z,4.12
2019-05-12T22:03:20.611Z,6.33
2019-05-12T22:05:47.104Z,7.67
2019-05-12T22:07:39.693Z,5.43
2019-05-12T22:09:46.811Z,6.60
2019-05-12T22:11:54.179Z,4.85
2019-05-12T22:14:00.198Z,4.33
2019-05-12T22:16:06.918Z,9.13
2019-05-12T22:18:13.470Z,5.60
2019-05-12T22:20:20.173Z,5.62
2019-05-12T22:22:29.921Z,3.17
2019-05-12T22:24:38.699Z,5.67
2019-05-12T22:26:45.883Z,8.23
2019-05-12T22:28:53.548Z,7.10
2019-05-12T22:30:59.494Z,4.10
2019-05-12T22:33:10.641Z,7.75
2019-05-12T22:35:21.492Z,5.60
2019-05-12T22:37:23.980Z,6.33
2019-05-12T22:39:33.818Z,3.90
2019-05-12T22:41:41.403Z,8.30
2019-05-12T22:43:46.901Z,4.90
2019-05-12T22:45:54.791Z,3.65
2019-05-12T22:48:04.037Z,5.15
2019-05-12T22:50:13.625Z,3.70
2019-05-12T22:54:25.955Z,4.58
2019-05-12T22:56:34.304Z,5.70
2019-05-12T22:58:44.055Z,4.97
2019-05-12T23:00:51.163Z,3.23
2019-05-12T23:03:00.478Z,5.42
2019-05-12T23:05:10.385Z,6.33
2019-05-12T23:07:19.174Z,5.15
2019-05-12T23:09:25.910Z,4.65
2019-05-12T23:11:35.956Z,5.60
2019-05-12T23:13:42.733Z,3.98
2019-05-12T23:15:49.488Z,5.35
2019-05-12T23:17:56.191Z,4.90
2019-05-12T23:20:04.776Z,5.50
2019-05-12T23:22:11.094Z,5.42
2019-05-12T23:24:17.480Z,6.08
2019-05-12T23:26:24.472Z,5.00
2019-05-12T23:28:31.179Z,4.95
2019-05-12T23:30:37.673Z,3.77
2019-05-12T23:32:51.515Z,5.55
2019-05-12T23:34:56.826Z,7.47
2019-05-12T23:37:00.684Z,3.20
2019-05-12T23:39:08.118Z,6.85
2019-05-12T23:41:14.518Z,4.35
2019-05-12T23:43:20.952Z,4.92
2019-05-12T23:45:27.492Z,4.22
2019-05-12T23:47:34.430Z,6.87
2019-05-12T23:49:41.075Z,5.85
2019-05-12T23:51:47.488Z,5.00
2019-05-12T23:53:53.862Z,5.70
2019-05-12T23:56:00.260Z,4.35
2019-05-12T23:58:06.764Z,4.55
